Latest Weather Observations for Bickley

IDW60901

Issued at 4:21 am WST Tuesday 11 August 2020 (issued every 10 minutes, with the page automatically refreshed every 10 minutes)

About weather observations | Map of Perth area stations | Latest observations for Perth area | Other Formats
Station Details ID: 009240 Name: BICKLEY Lat: -32.01 Lon: 116.14 Height: 384.0 m
Data from the previous 72 hours. | See also: Recent months at Bickley
Date/Time
WST
Temp
°C
App
Temp
°C
Dew
Point
°C
Rel
Hum
%
Delta-T
°C
Wind Press
QNH
hPa
Press
MSL
hPa
Rain since
9am
mm
Dir  Spd
km/h
Gust
km/h
Spd
kts
Gust
kts
11/04:00am 11.1 6.8 10.6 97 0.3 W 24 44 13 24 - - 8.2
11/03:30am 11.4 7.3 10.0 91 0.7 W 22 33 12 18 - - 7.6
11/03:00am 11.1 6.8 9.2 88 1.0 W 22 41 12 22 - - 7.6
11/02:35am 11.4 6.1 9.7 89 0.9 W 28 48 15 26 - - 7.6
11/02:30am 11.4 6.4 9.7 89 0.9 W 26 46 14 25 - - 7.6
11/02:00am 11.3 6.7 9.7 90 0.8 W 24 41 13 22 - - 7.6
11/01:30am 11.2 6.7 10.1 93 0.6 W 24 44 13 24 - - 7.6
11/01:00am 11.4 6.3 10.5 94 0.5 W 28 46 15 25 - - 7.6
11/12:51am 11.4 6.3 10.5 94 0.5 W 28 52 15 28 - - 7.6
11/12:30am 11.3 6.9 10.5 95 0.4 W 24 43 13 23 - - 7.6
11/12:00am 11.1 6.4 10.8 98 0.2 W 26 50 14 27 - - 7.6
 
Date/Time
WST
Temp
°C
App
Temp
°C
Dew
Point
°C
Rel
Hum
%
Delta-T
°C
Wind Press
QNH
hPa
Press
MSL
hPa
Rain since
9am
mm
Dir  Spd
km/h
Gust
km/h
Spd
kts
Gust
kts
10/11:37pm 11.1 6.1 10.9 99 0.1 W 28 48 15 26 - - 7.6
10/11:30pm 11.2 6.6 11.0 99 0.1 W 26 43 14 23 - - 7.6
10/11:06pm 11.3 6.3 11.1 99 0.1 W 28 46 15 25 - - 7.6
10/11:00pm 11.3 6.7 11.1 99 0.1 W 26 44 14 24 - - 7.4
10/10:30pm 11.4 7.2 11.2 99 0.1 W 24 39 13 21 - - 7.4
10/10:00pm 11.5 6.6 11.3 99 0.1 W 28 46 15 25 - - 7.2
10/09:33pm 11.5 6.6 11.3 99 0.1 W 28 46 15 25 - - 7.0
10/09:30pm 11.6 6.7 11.4 99 0.1 W 28 44 15 24 - - 7.0
10/09:12pm 11.5 6.6 11.3 99 0.1 W 28 46 15 25 - - 7.0
10/09:00pm 11.7 6.9 11.5 99 0.1 W 28 43 15 23 - - 6.0
10/08:33pm 11.7 6.9 11.5 99 0.1 W 28 48 15 26 - - 5.6
10/08:30pm 11.6 7.1 11.4 99 0.1 W 26 46 14 25 - - 5.6
10/08:00pm 12.0 6.4 11.4 96 0.3 W 32 50 17 27 - - 4.6
10/07:37pm 12.0 7.1 11.2 95 0.4 WNW 28 46 15 25 - - 4.4
10/07:30pm 12.0 7.1 11.2 95 0.4 WNW 28 43 15 23 - - 4.4
10/07:00pm 12.3 6.8 10.4 88 1.0 WNW 30 54 16 29 - - 4.2
10/06:44pm 12.4 6.9 10.5 88 1.0 WNW 30 48 16 26 - - 4.2
10/06:30pm 12.4 6.5 10.6 89 1.0 WNW 32 48 17 26 - - 4.2
10/06:00pm 12.4 7.3 10.6 89 1.0 WNW 28 50 15 27 - - 4.2
10/05:30pm 12.4 7.2 10.3 87 1.1 W 28 52 15 28 - - 4.2
10/05:00pm 12.8 7.0 9.3 79 1.8 W 30 50 16 27 - - 4.0
10/04:30pm 12.7 7.2 9.2 79 1.8 W 28 48 15 26 - - 4.0
10/04:10pm 12.4 7.5 11.3 93 0.6 W 28 48 15 26 - - 4.0
10/04:00pm 12.4 7.5 11.3 93 0.6 W 28 43 15 23 - - 4.0
10/03:36pm 13.5 8.5 11.0 85 1.3 W 28 54 15 29 - - 3.8
10/03:30pm 13.7 10.3 11.2 85 1.3 W 20 35 11 19 - - 3.8
10/03:00pm 13.4 8.4 12.3 93 0.6 W 30 48 16 26 - - 3.8
10/02:36pm 13.7 8.1 11.4 86 1.2 WNW 32 72 17 39 - - 3.2
10/02:30pm 13.8 8.7 11.8 88 1.1 WNW 30 50 16 27 - - 3.2
10/02:03pm 12.9 8.0 11.3 90 0.9 W 28 52 15 28 - - 3.0
10/02:00pm 13.2 9.1 11.6 90 0.9 W 24 44 13 24 - - 2.6
10/01:32pm 13.9 8.6 9.9 77 2.1 W 28 46 15 25 - - 2.4
10/01:30pm 14.0 8.4 10.0 77 2.1 W 30 46 16 25 - - 2.4
10/01:02pm 13.8 8.7 10.6 81 1.7 W 28 46 15 25 - - 2.4
10/01:00pm 13.7 9.3 10.5 81 1.7 W 24 44 13 24 - - 2.4
10/12:30pm 13.6 10.7 12.2 91 0.8 WNW 19 33 10 18 - - 2.4
10/12:12pm 13.7 8.9 11.8 88 1.0 WNW 28 48 15 26 - - 2.2
10/12:00pm 14.1 10.5 12.0 87 1.2 WNW 22 39 12 21 - - 2.0
10/11:30am 14.5 10.2 10.9 79 1.9 WNW 24 35 13 19 - - 2.0
10/11:00am 14.2 10.9 12.8 91 0.8 WNW 22 39 12 21 - - 2.0
10/10:30am 12.3 9.7 12.1 99 0.1 NW 17 28 9 15 - - 2.0
10/10:00am 11.1 7.8 10.9 99 0.1 WNW 19 32 10 17 - - 2.0
10/09:30am 10.2 7.0 10.1 99 0.1 NW 17 26 9 14 - - 1.4
10/09:00am 10.2 7.0 10.1 99 0.1 NW 17 28 9 15 - - 61.4
10/08:30am 9.7 6.8 9.6 99 0.1 WNW 15 33 8 18 - - 61.4
10/08:00am 9.3 6.3 9.2 99 0.1 NW 15 26 8 14 - - 59.6
10/07:30am 8.8 5.7 8.7 99 0.0 NW 15 22 8 12 - - 59.4
10/07:00am 9.1 4.3 9.0 99 0.1 NW 24 44 13 24 - - 58.8
10/06:30am 8.8 4.6 8.2 96 0.3 WNW 20 39 11 21 - - 56.0
10/06:00am 8.6 3.9 7.8 95 0.4 NW 22 39 12 21 - - 55.0
10/05:33am 9.1 2.3 7.7 91 0.7 WNW 33 82 18 44 - - 53.6
10/05:31am 9.6 3.9 8.4 92 0.6 WNW 28 63 15 34 - - 52.4
10/05:30am 9.7 4.4 8.5 92 0.6 WNW 26 61 14 33 - - 51.8
10/05:18am 9.3 4.1 8.7 96 0.3 WNW 26 65 14 35 - - 51.2
10/05:15am 9.7 5.8 9.4 98 0.2 WNW 20 65 11 35 - - 50.4
10/05:00am 10.4 7.6 9.9 97 0.3 WNW 15 32 8 17 - - 49.4
10/04:30am 10.3 7.1 9.8 97 0.3 WNW 17 26 9 14 - - 49.0
10/04:00am 10.3 7.0 9.7 96 0.3 WNW 17 26 9 14 - - 46.4
10/03:30am 10.4 6.5 9.6 95 0.4 WNW 20 33 11 18 - - 46.4
10/03:00am 9.8 3.8 8.6 92 0.6 W 30 54 16 29 - - 46.2
10/02:56am 9.9 4.3 8.7 92 0.6 W 28 54 15 29 - - 46.2
10/02:55am 10.0 4.4 8.8 92 0.6 W 28 54 15 29 - - 46.2
10/02:30am 10.0 6.7 9.5 97 0.3 WNW 17 28 9 15 - - 44.6
10/02:00am 10.3 5.8 10.1 99 0.1 WNW 24 35 13 19 - - 44.6
10/01:30am 10.3 5.1 10.1 99 0.1 W 28 52 15 28 - - 44.6
10/01:00am 10.0 6.2 9.9 99 0.1 W 20 35 11 19 - - 43.0
10/12:30am 9.8 5.6 9.7 99 0.1 WNW 22 35 12 19 - - 38.4
10/12:00am 9.6 5.0 9.5 99 0.1 WNW 24 41 13 22 - - 36.2
 
Date/Time
WST
Temp
°C
App
Temp
°C
Dew
Point
°C
Rel
Hum
%
Delta-T
°C
Wind Press
QNH
hPa
Press
MSL
hPa
Rain since
9am
mm
Dir  Spd
km/h
Gust
km/h
Spd
kts
Gust
kts
09/11:31pm 9.8 4.5 9.7 99 0.1 NW 28 48 15 26 - - 34.4
09/11:30pm 9.7 4.7 9.6 99 0.1 NW 26 48 14 26 - - 34.2
09/11:00pm 9.0 4.6 8.9 99 0.0 NNW 22 44 12 24 - - 30.6
09/10:30pm 9.0 5.0 8.9 99 0.0 NNW 20 35 11 19 - - 26.0
09/10:00pm 9.5 4.3 9.0 97 0.3 NNW 26 54 14 29 - - 25.6
09/09:53pm 9.6 4.1 9.0 96 0.3 NNW 28 54 15 29 - - 25.4
09/09:30pm 9.5 5.3 8.4 93 0.5 NNW 20 33 11 18 - - 22.4
09/09:00pm 9.6 5.0 8.0 90 0.8 NNW 22 35 12 19 - - 22.4
09/08:30pm 9.4 5.4 8.9 97 0.3 NNW 20 35 11 19 - - 22.4
09/08:00pm 10.0 5.8 9.9 99 0.1 NNW 22 39 12 21 - - 22.4
09/07:30pm 10.5 6.8 10.3 99 0.1 NNW 20 32 11 17 - - 22.0
09/07:00pm 10.3 6.8 10.1 99 0.1 NW 19 30 10 16 - - 22.0
09/06:30pm 10.2 6.6 9.9 98 0.2 NW 19 30 10 16 - - 22.0
09/06:00pm 11.0 7.6 10.7 98 0.2 NW 19 32 10 17 - - 22.0
09/05:30pm 11.8 7.7 11.5 98 0.2 NNW 24 44 13 24 - - 20.0
09/05:00pm 12.0 8.8 11.1 94 0.5 NW 19 39 10 21 - - 19.6
09/04:30pm 12.7 8.4 10.6 87 1.1 NNW 24 43 13 23 - - 19.2
09/04:00pm 12.8 9.2 10.7 87 1.1 NNW 20 35 11 19 - - 19.2
09/03:30pm 12.8 9.3 11.0 89 1.0 NNW 20 43 11 23 - - 19.2
09/03:00pm 11.9 8.8 11.7 99 0.1 NNE 19 32 10 17 - - 19.2
09/02:30pm 11.6 8.2 11.4 99 0.1 N 20 41 11 22 - - 19.0
09/02:00pm 11.3 8.1 11.1 99 0.1 NNE 19 41 10 22 - - 19.0
09/01:30pm 11.3 8.1 11.1 99 0.1 NNE 19 35 10 19 - - 18.6
09/01:00pm 11.4 8.0 11.2 99 0.1 N 20 44 11 24 - - 17.6
09/12:30pm 11.1 7.6 10.9 99 0.1 N 20 39 11 21 - - 15.8
09/12:00pm 11.1 7.2 10.9 99 0.1 NNE 22 44 12 24 - - 13.2
09/11:30am 11.0 5.6 10.8 99 0.1 N 30 52 16 28 - - 10.0
09/11:16am 10.8 5.7 10.6 99 0.1 NNE 28 54 15 29 - - 7.6
09/11:00am 10.8 7.2 10.6 99 0.1 NNE 20 44 11 24 - - 5.2
09/10:40am 10.7 5.6 10.5 99 0.1 N 28 57 15 31 - - 3.8
09/10:30am 10.7 6.3 10.5 99 0.1 NNE 24 48 13 26 - - 3.4
09/10:00am 10.5 5.3 10.3 99 0.1 N 28 54 15 29 - - 3.0
09/09:30am 10.2 4.1 9.7 97 0.3 NNE 32 59 17 32 - - 2.2
09/09:00am 9.8 4.2 8.9 94 0.5 NNE 28 52 15 28 - - 4.2
09/08:30am 10.6 3.8 7.8 83 1.4 NE 33 67 18 36 - - 2.4
09/08:00am 12.6 4.3 6.2 65 3.1 NNE 39 85 21 46 - - 1.8
09/07:51am 12.9 4.5 5.6 61 3.5 NE 39 82 21 44 - - 1.8
09/07:30am 12.9 4.8 5.1 59 3.7 NE 37 63 20 34 - - 1.8
09/07:00am 11.9 4.9 5.8 66 2.9 NE 32 67 17 36 - - 1.8
09/06:49am 11.3 5.1 6.0 70 2.5 NE 28 67 15 36 - - 1.8
09/06:33am 11.0 4.5 6.4 73 2.2 ENE 30 48 16 26 - - 1.8
09/06:30am 10.9 4.4 6.5 74 2.1 ENE 30 46 16 25 - - 1.8
09/06:02am 10.0 3.3 7.4 84 1.3 ENE 32 57 17 31 - - 1.8
09/06:00am 10.0 3.7 7.4 84 1.3 ENE 30 46 16 25 - - 1.8
09/05:37am 9.9 4.0 7.7 86 1.1 ENE 28 46 15 25 - - 1.6
09/05:30am 9.9 4.8 7.7 86 1.1 NE 24 41 13 22 - - 1.6
09/05:15am 10.0 4.1 7.6 85 1.2 ENE 28 46 15 25 - - 1.4
09/05:00am 10.3 5.2 7.5 83 1.4 NE 24 44 13 24 - - 1.2
09/04:31am 11.7 5.6 6.4 70 2.6 ENE 28 48 15 26 - - 0.6
09/04:30am 11.8 6.1 6.5 70 2.6 ENE 26 48 14 26 - - 0.6
09/04:00am 13.3 6.4 4.7 56 4.0 NE 30 52 16 28 - - 0.2
09/03:30am 13.9 7.3 4.2 52 4.5 ENE 28 46 15 25 - - 0.2
09/03:00am 13.5 6.6 4.6 55 4.2 ENE 30 50 16 27 - - 0.2
09/02:30am 13.4 7.0 5.3 58 3.9 ENE 28 52 15 28 - - 0.0
09/02:00am 14.3 7.7 4.0 50 4.8 NE 28 50 15 27 - - 0.0
09/01:30am 15.6 7.7 2.1 40 6.1 NE 33 57 18 31 - - 0.0
09/01:00am 15.2 7.5 2.4 42 5.8 NE 32 57 17 31 - - 0.0
09/12:33am 15.1 8.2 2.3 42 5.8 NE 28 46 15 25 - - 0.0
09/12:30am 15.2 7.9 2.4 42 5.8 NE 30 46 16 25 - - 0.0
09/12:00am 15.1 7.8 2.3 42 5.8 ENE 30 54 16 29 - - 0.0
 
Date/Time
WST
Temp
°C
App
Temp
°C
Dew
Point
°C
Rel
Hum
%
Delta-T
°C
Wind Press
QNH
hPa
Press
MSL
hPa
Rain since
9am
mm
Dir  Spd
km/h
Gust
km/h
Spd
kts
Gust
kts
08/11:33pm 15.1 8.1 2.0 41 5.9 ENE 28 46 15 25 - - 0.0
08/11:30pm 15.0 7.7 2.2 42 5.8 NE 30 46 16 25 - - 0.0
08/11:00pm 14.8 7.2 2.7 44 5.5 ENE 32 52 17 28 - - 0.0
08/10:30pm 15.0 7.4 2.9 44 5.6 ENE 32 57 17 31 - - 0.0
08/10:00pm 14.8 7.2 3.0 45 5.4 ENE 32 54 17 29 - - 0.0
08/09:30pm 14.7 7.6 3.5 47 5.2 ENE 30 57 16 31 - - 0.0
08/09:00pm 14.8 8.1 3.6 47 5.2 ENE 28 50 15 27 - - 0.0
08/08:59pm 14.9 8.2 3.7 47 5.2 ENE 28 50 15 27 - - 0.0
08/08:30pm 14.8 9.0 4.2 49 5.0 ENE 24 41 13 22 - - 0.0
08/08:00pm 15.0 9.5 3.8 47 5.2 ENE 22 41 12 22 - - 0.0
08/07:30pm 15.9 10.3 3.7 44 5.7 ENE 22 39 12 21 - - 0.0
08/07:00pm 15.6 10.1 4.0 46 5.5 ENE 22 41 12 22 - - 0.0
08/06:30pm 15.3 9.5 4.4 48 5.2 ENE 24 41 13 22 - - 0.0
08/06:00pm 15.4 10.2 5.3 51 4.9 ENE 22 33 12 18 - - 0.0
08/05:30pm 15.5 10.3 5.4 51 4.9 ENE 22 33 12 18 - - 0.0
08/05:00pm 16.3 10.7 5.6 49 5.2 ENE 24 41 13 22 - - 0.0
08/04:30pm 16.8 12.0 5.7 48 5.5 ENE 20 33 11 18 - - 0.0
08/04:00pm 17.1 12.5 5.4 46 5.7 ENE 19 39 10 21 - - 0.0
08/03:36pm 17.4 11.0 5.0 44 6.1 NE 28 46 15 25 - - 0.0
08/03:30pm 17.6 12.0 5.2 44 6.1 NE 24 44 13 24 - - 0.0
08/03:00pm 18.5 11.7 5.0 41 6.6 NE 30 48 16 26 - - 0.0
08/02:51pm 18.5 12.1 5.0 41 6.6 NE 28 46 15 25 - - 0.0
08/02:30pm 18.5 13.2 5.0 41 6.6 NE 22 48 12 26 - - 0.0
08/02:00pm 18.2 12.9 6.7 47 5.8 ENE 24 41 13 22 - - 0.0
08/01:30pm 17.3 11.0 5.9 47 5.7 ENE 28 46 15 25 - - 0.0
08/01:00pm 16.5 10.2 5.5 48 5.4 ENE 28 48 15 26 - - 0.0
08/12:30pm 16.1 8.9 5.1 48 5.3 ENE 32 52 17 28 - - 0.0
08/12:00pm 15.9 8.9 5.8 51 5.0 ENE 32 50 17 27 - - 0.0
08/11:30am 13.5 6.2 4.6 55 4.2 ENE 32 52 17 28 - - 0.0
08/11:02am 12.8 6.3 4.8 58 3.8 ENE 28 46 15 25 - - 0.0
08/11:00am 12.9 6.1 5.3 60 3.6 ENE 30 46 16 25 - - 0.0
08/10:30am 11.1 4.5 4.3 63 3.1 ENE 28 46 15 25 - - 0.0
08/10:00am 10.0 3.1 4.4 68 2.5 ENE 30 48 16 26 - - 0.0
08/09:30am 9.2 2.1 3.4 67 2.6 ENE 30 54 16 29 - - 0.0
08/09:00am 9.0 2.4 4.2 72 2.2 ENE 28 48 15 26 - - 0.0
08/08:32am 8.3 1.6 3.8 73 2.0 ENE 28 46 15 25 - - 0.0
08/08:30am 8.3 2.0 3.6 72 2.1 ENE 26 44 14 24 - - 0.0
08/08:00am 7.2 0.8 3.3 76 1.7 ENE 26 43 14 23 - - 0.0
08/07:30am 6.4 0.4 3.4 81 1.3 ENE 24 39 13 21 - - 0.0
08/07:00am 5.8 -0.6 3.1 83 1.1 E 26 39 14 21 - - 0.0
08/06:30am 5.6 -0.4 3.3 85 1.0 E 24 35 13 19 - - 0.0
08/06:00am 5.8 -0.2 3.3 84 1.1 E 24 57 13 31 - - 0.0
08/05:30am 5.8 -0.2 3.5 85 1.0 E 24 33 13 18 - - 0.0
08/05:00am 6.0 0.4 3.7 85 1.0 E 22 33 12 18 - - 0.0
08/04:30am 6.1 0.2 3.8 85 1.0 ENE 24 35 13 19 - - 0.0

Latest Capital City Observations: Canberra | Sydney | Melbourne | Brisbane | Adelaide | Perth | Hobart | Darwin

Other formats

Comma delimited format used in spreadsheet applications
http://www.bom.gov.au/fwo/IDW60901/IDW60901.95610.axf

JavaScript Object Notation format (JSON) in row-major order
http://www.bom.gov.au/fwo/IDW60901/IDW60901.95610.json

Data quality

Most of these data are generated automatically and are frequently updated. Quality checks on data are not normally performed. It is possible for incorrect values to appear. Refer to information at About Latest Weather Observations and please check the disclaimer before using these data.